This is the latest recevied weather packets stored in our database for station/object OE5WWO. If no packets are shown the sender has not sent any weather packets the latest 10 day(s).
| Time | Temp. | Humidity | Pressure | Rain* | Wind** | Luminosity | Snow |
|---|---|---|---|---|---|---|---|
| 1777908038 | 27.22° C | 32% | 1009.5 hPa | 0 mm | - | - | - |
| 1777906854 | 28.33° C | 29% | 1009.5 hPa | 0 mm | - | - | - |
| 1777902938 | 29.44° C | 33% | 1010.6 hPa | 0 mm | - | - | - |
| 1777902369 | 28.33° C | 33% | 1010.8 hPa | 0 mm | - | - | - |
| 1777901738 | 28.33° C | 30% | 1011 hPa | 0 mm | - | - | - |
| 1777897238 | 26.11° C | 40% | 1012.2 hPa | 0 mm | - | - | - |
| 1777892137 | 24.44° C | 43% | 1013.3 hPa | 0 mm | - | - | - |
| 1777890037 | 23.33° C | 46% | 1014 hPa | 0 mm | - | - | - |
| 1777889438 | 23.33° C | 46% | 1014.2 hPa | 0 mm | - | - | - |
| 1777885837 | 21.67° C | 53% | 1014.9 hPa | 0 mm | - | - | - |
| 1777885249 | 21.11° C | 52% | 1014.9 hPa | 0 mm | - | - | - |
| 1777884637 | 21.11° C | 53% | 1015 hPa | 0 mm | - | - | - |
| 1777883737 | 20.56° C | 52% | 1015 hPa | 0 mm | - | - | - |
| 1777883137 | 20° C | 54% | 1015.2 hPa | 0 mm | - | - | - |
| 1777881650 | 18.89° C | 55% | 1015.3 hPa | 0 mm | - | - | - |
| 1777881042 | 18.89° C | 55% | 1015.2 hPa | 0 mm | - | - | - |
| 1777880139 | 18.33° C | 56% | 1015.1 hPa | 0 mm | - | - | - |
| 1777879237 | 18.33° C | 58% | 1015.1 hPa | 0 mm | - | - | - |
| 1777876256 | 17.22° C | 60% | 1014.9 hPa | 0 mm | - | - | - |
| 1777873558 | 16.11° C | 62% | 1014.6 hPa | 0 mm | - | - | - |
| 1777866642 | 13.33° C | 70% | 1014 hPa | 0 mm | - | - | - |
| 1777865139 | 13.33° C | 69% | 1013.8 hPa | 0 mm | - | - | - |
| 1777864545 | 13.89° C | 69% | 1013.7 hPa | 0 mm | - | - | - |
| 1777864238 | 13.89° C | 69% | 1013.7 hPa | 0 mm | - | - | - |
| 1777862746 | 14.44° C | 67% | 1013.6 hPa | 0 mm | - | - | - |
* Rain latest hour (hover to see other rain measurements)
** Current wind speed in m/s (hover to see current wind gust speed)